Station: Portable Btsd (Dfes)  

  Atmospheric Gas Attenuation - ITU Rec 676-11   ----------------- dB/100km -----------------
Date Time Temp RH % AH g/m3 Dew Point Wind Direction Speed kph Gust kph Barometer mB Rainfall Since 9am 24GHz 47GHz 76GHz 122GHz 134GHz 241GHz
08/05 09:10 14.5 56 6.97 5.8 26 30 1013.1 0 16.1 23.2 33.2 86.7 76.8 263.0
08/05 09:00 14 57 6.88 5.6 28 35 1013.1 0 15.9 23.1 33.0 86.4 76.2 260.7
08/05 08:50 14.3 58 7.13 6.1 22 28 1013.1 0 16.4 23.4 33.8 88.6 79.0 270.6
08/05 08:40 13.9 59 7.07 6 24 30 1013.1 0 16.3 23.5 33.8 88.4 78.6 269.3
08/05 08:30 13.7 61 7.22 6.3 24 30 1013.1 0 16.7 23.7 34.4 90.1 80.7 276.6
08/05 08:20 13.3 64 7.39 6.6 20 24 1013.1 0 17.0 24.1 35.3 92.3 83.3 285.5
08/05 08:10 12.9 69 7.78 7.3 20 22 1013.1 0 17.9 24.8 37.0 96.9 88.7 304.5
08/05 08:00 12.6 71 7.86 7.5 19 22 1013.1 0 18.1 25.0 37.4 98.1 90.1 309.4
08/05 07:50 12.4 74 8.09 7.9 17 19 1013.1 0 18.6 25.5 38.4 100.8 93.4 320.7
08/05 07:40 12 76 8.1 7.9 17 19 1013.1 0 18.6 25.6 38.7 101.4 94.0 322.8
08/05 07:30 11.7 78 8.16 8.1 17 20 1013.1 0 18.7 25.8 39.1 102.5 95.2 326.9
08/05 07:20 11.3 81 8.26 8.1 17 17 1013.1 0 19.0 26.1 39.7 104.1 97.0 333.3
08/05 07:10 10.9 83 8.26 8.2 15 17 1013.1 0 19.0 26.2 39.9 104.6 97.5 335.0
08/05 07:00 10.5 85 8.25 8.1 15 15 1013.1 0 19.0 26.3 40.0 105.0 97.9 336.2
08/05 06:50 10.2 87 8.28 8.2 15 15 1013.1 0 19.1 26.4 40.3 105.8 98.7 339.0
08/05 06:40 10.2 87 8.28 8.2 15 17 1013.1 0 19.1 26.4 40.3 105.8 98.7 339.0
08/05 06:30 10.1 88 8.32 8.3 13 15 1013.1 0 19.2 26.5 40.5 106.4 99.4 341.3
08/05 06:20 10.1 88 8.32 8.3 15 17 1013.1 0 19.2 26.5 40.5 106.4 99.4 341.3
08/05 06:10 9.9 90 8.41 8.4 15 19 1013.1 0 19.4 26.7 41.0 107.6 100.9 346.6
08/05 06:00 9.5 92 8.38 8.3 13 15 1013.1 0 19.3 26.8 41.1 107.9 101.0 346.9
08/05 05:50 9.3 93 8.36 8.2 13 13 1013.1 0 19.3 26.8 41.1 107.9 101.0 346.8
08/05 05:40 9.3 93 8.36 8.2 13 13 1013.1 0 19.3 26.8 41.1 107.9 101.0 346.8
08/05 05:30 9.4 93 8.41 8.3 13 13 1013.1 0 19.4 26.9 41.3 108.3 101.5 348.8
08/05 05:20 9.5 93 8.47 8.4 11 13 1013.1 0 19.5 27.0 41.5 108.9 102.2 351.3
08/05 05:10 9.7 93 8.58 8.7 13 13 1013.1 0 19.7 27.1 41.8 109.8 103.5 355.7
08/05 05:00 9.9 93 8.69 8.8 13 13 1013.1 0 20.0 27.2 42.2 110.8 104.8 360.2
08/05 04:50 9.9 93 8.69 8.8 11 13 1013.1 0 20.0 27.2 42.2 110.8 104.8 360.2
08/05 04:40 9.8 93 8.63 8.8 13 13 1013.1 0 19.9 27.1 42.0 110.3 104.0 357.7
08/05 04:30 9.6 93 8.52 8.5 13 13 1013.1 0 19.6 27.0 41.6 109.3 102.8 353.3
08/05 04:20 9.6 92 8.43 8.4 11 13 1013.1 0 19.4 26.9 41.2 108.3 101.5 348.9
08/05 04:10 9.8 92 8.54 8.5 11 11 1013.1 0 19.7 27.0 41.6 109.2 102.8 353.3
08/05 04:00 10 92 8.65 8.7 9 11 1013.1 0 19.9 27.1 42.0 110.2 104.1 357.8
08/05 03:50 10.3 90 8.62 8.8 11 11 1013.1 0 19.8 27.0 41.7 109.4 103.2 354.9
08/05 03:40 10.6 90 8.79 9 11 13 1013.1 0 20.2 27.2 42.2 110.9 105.2 361.8
08/05 03:30 10.8 89 8.8 9.1 13 13 1013.1 0 20.2 27.1 42.2 110.8 105.1 361.4
08/05 03:20 11 89 8.91 9.2 13 15 1013.1 0 20.4 27.2 42.5 111.7 106.3 365.8
08/05 03:10 11.2 88 8.92 9.3 13 13 1013.1 0 20.4 27.2 42.5 111.5 106.2 365.3
08/05 03:00 11.3 87 8.88 9.3 15 17 1013.1 0 20.3 27.1 42.2 110.9 105.5 362.9
08/05 02:50 11.5 87 8.99 9.4 15 19 1013.1 0 20.5 27.2 42.6 111.9 106.7 367.3
08/05 02:40 11.6 86 8.94 9.4 19 22 1013.1 0 20.4 27.1 42.3 111.2 105.9 364.4
08/05 02:30 11.5 87 8.99 9.4 17 20 1013.1 0 20.5 27.2 42.6 111.9 106.7 367.3
08/05 02:20 11.3 87 8.88 9.3 15 19 1013.1 0 20.3 27.1 42.2 110.9 105.5 362.9
08/05 02:10 11.1 88 8.87 9.2 13 15 1013.1 0 20.3 27.1 42.3 111.1 105.6 363.4
08/05 02:00 11 89 8.91 9.2 13 15 1013.1 0 20.4 27.2 42.5 111.7 106.3 365.8
08/05 01:50 10.8 89 8.8 9.1 15 15 1013.1 0 20.2 27.1 42.2 110.8 105.1 361.4
08/05 01:40 10.7 89 8.74 9 15 15 1013.1 0 20.0 27.0 42.0 110.2 104.4 358.9
08/05 01:30 10.7 89 8.74 8.9 13 13 1013.1 0 20.0 27.0 42.0 110.2 104.4 358.9
08/05 01:20 10.8 88 8.7 8.9 13 13 1013.1 0 20.0 26.9 41.7 109.6 103.7 356.5
08/05 01:10 11 87 8.71 9 11 13 1013.1 0 20.0 26.9 41.7 109.5 103.5 356.1
08/05 01:00 11.2 87 8.82 9.1 11 13 1013.1 0 20.2 27.0 42.0 110.4 104.8 360.5
08/05 00:50 11.4 86 8.83 9.1 13 13 1013.1 0 20.2 27.0 42.0 110.2 104.6 360.0
08/05 00:40 11.5 85 8.78 9.1 13 13 1013.1 0 20.1 26.9 41.7 109.5 103.8 357.2
08/05 00:30 11.6 85 8.84 9.1 11 13 1013.1 0 20.2 26.9 41.9 110.1 104.5 359.6
08/05 00:20 11.8 84 8.84 9.2 11 13 1013.1 0 20.2 26.9 41.8 109.8 104.2 358.7
08/05 00:10 12.1 83 8.9 9.3 11 11 1013.1 0 20.3 26.9 41.9 110.0 104.7 360.2
08/05 00:00 12.4 81 8.85 9.3 13 13 1013.1 0 20.2 26.7 41.5 109.1 103.6 356.4
07/05 23:50 12.8 80 8.96 9.4 13 15 1013.1 0 20.4 26.8 41.8 109.7 104.5 359.8
07/05 23:40 13 79 8.96 9.4 13 17 1013.1 0 20.4 26.7 41.7 109.4 104.2 358.9
07/05 23:30 12.9 79 8.9 9.4 13 15 1013.1 0 20.3 26.6 41.5 108.9 103.6 356.5
07/05 23:20 12.8 80 8.96 9.4 13 15 1013.1 0 20.4 26.8 41.8 109.7 104.5 359.8
07/05 23:10 12.8 80 8.96 9.4 13 15 1013.1 0 20.4 26.8 41.8 109.7 104.5 359.8
07/05 23:00 13 79 8.96 9.4 11 13 1013.1 0 20.4 26.7 41.7 109.4 104.2 358.9
07/05 22:50 13.2 78 8.96 9.4 13 15 1013.1 0 20.4 26.7 41.6 109.1 104.0 357.9
07/05 22:40 13.5 76 8.89 9.4 15 17 1013.1 0 20.2 26.4 41.1 108.0 102.6 353.3
07/05 22:30 13.6 76 8.94 9.4 15 17 1013.1 0 20.3 26.5 41.3 108.4 103.2 355.2
07/05 22:20 13.6 75 8.83 9.3 15 17 1013.1 0 20.1 26.3 40.8 107.2 101.7 350.0
07/05 22:10 13.7 74 8.76 9.1 13 17 1013.1 0 19.9 26.2 40.5 106.3 100.6 346.3
07/05 22:00 13.4 73 8.49 8.7 13 15 1013.1 0 19.4 25.8 39.5 103.8 97.4 335.1
07/05 21:50 13.1 70 7.99 7.8 13 15 1013.1 0 18.3 25.1 37.7 98.8 91.2 313.3
07/05 21:40 12.8 68 7.62 7 11 13 1013.1 0 17.5 24.6 36.4 95.3 86.8 297.7
07/05 21:30 12.5 66 7.26 6.4 11 11 1013.1 0 16.8 24.1 35.1 91.9 82.5 282.6
07/05 21:20 12.2 66 7.12 6.1 11 13 1013.1 0 16.5 24.0 34.7 90.8 81.0 277.4
07/05 21:10 11.7 68 7.11 6.1 9 11 1013.1 0 16.5 24.1 34.9 91.3 81.4 278.7
07/05 21:00 12.1 67 7.19 6.2 11 11 1013.1 0 16.7 24.1 35.0 91.7 82.0 280.8
07/05 20:50 12.3 66 7.17 6.2 11 13 1013.1 0 16.6 24.0 34.9 91.2 81.5 279.2
07/05 20:40 12.3 66 7.17 6.1 13 13 1013.1 0 16.6 24.0 34.9 91.2 81.5 279.2
07/05 20:30 12.4 65 7.1 6.1 11 13 1013.1 0 16.4 23.9 34.5 90.4 80.5 275.8
07/05 20:20 12.5 65 7.15 6.1 11 13 1013.1 0 16.6 23.9 34.7 90.8 81.1 277.6
07/05 20:10 12.5 65 7.15 6.1 11 13 1013.1 0 16.6 23.9 34.7 90.8 81.1 277.6
07/05 20:00 12.9 64 7.21 6.2 13 13 1013.1 0 16.7 23.9 34.7 90.9 81.4 278.9
07/05 19:50 13.2 62 7.12 6.2 13 17 1013.1 0 16.5 23.7 34.3 89.7 80.0 273.9
07/05 19:40 13.4 61 7.09 6.1 13 15 1013.1 0 16.4 23.6 34.1 89.2 79.4 271.9
07/05 19:30 13.6 61 7.18 6.2 13 15 1013.1 0 16.6 23.7 34.3 89.8 80.3 275.2
07/05 19:20 13.9 59 7.07 6.1 15 17 1013.1 0 16.3 23.5 33.8 88.4 78.6 269.3
07/05 19:10 14.1 58 7.04 6.1 15 19 1013.1 0 16.3 23.4 33.6 87.9 78.1 267.3
07/05 19:00 14.2 58 7.08 6.1 15 19 1013.1 0 16.3 23.4 33.7 88.2 78.5 268.7
07/05 18:50 14.3 58 7.13 6.2 15 17 1013.1 0 16.4 23.4 33.8 88.6 79.0 270.6
07/05 18:40 14.6 57 7.13 6.3 15 17 1013.1 0 16.4 23.4 33.7 88.2 78.7 269.6
07/05 18:30 14.8 56 7.09 6.2 17 19 1013.1 0 16.3 23.3 33.5 87.6 78.0 267.2
07/05 18:20 15 55 7.05 6.2 17 19 1013.1 0 16.2 23.1 33.3 87.0 77.3 264.8
07/05 18:10 15.1 55 7.1 6.1 15 19 1013.1 0 16.3 23.2 33.4 87.4 77.8 266.6
07/05 18:00 15.2 55 7.14 6.2 13 15 1013.1 0 16.4 23.2 33.5 87.7 78.2 268.0
07/05 17:50 15.7 53 7.09 6.1 15 20 1013.1 0 16.3 23.0 33.1 86.6 77.1 264.2
07/05 17:40 16.1 50 6.85 5.9 19 20 1013.1 0 15.8 22.6 32.1 83.9 73.8 252.7
07/05 17:30 16.3 49 6.8 5.8 19 24 1013.1 0 15.7 22.4 31.8 83.2 73.1 250.0
07/05 17:20 16.7 48 6.82 5.6 17 20 1013.1 0 15.7 22.4 31.7 82.9 72.9 249.6
07/05 17:10 17.1 46 6.7 5.5 20 24 1013.1 0 15.4 22.1 31.2 81.4 71.2 243.4
07/05 17:00 17.6 46 6.9 6 20 24 1013.1 0 15.8 22.3 31.7 82.8 73.1 250.2
07/05 16:50 18 44 6.76 5.8 22 24 1013.1 0 15.5 22.0 31.0 81.1 71.1 243.2
07/05 16:40 18.3 44 6.88 5.9 20 26 1013.1 0 15.7 22.1 31.3 81.9 72.2 247.2

Last Refresh: 08-May-2026 11:03:46

Bureau of Meteorology